Time;durP1;ratioP1;P1;durP2;ratioP2;P2;SDS_P1;SDS_P2;PMS_P1;PMS_P2;Temp;Humidity;BMP_temperature;BMP_pressure;BME280_temperature;BME280_humidity;BME280_pressure;Samples;Min_cycle;Max_cycle;Signal;HPM_P1;HPM_P2
2022/10/07 00:00:17;;;;;;;13.90;2.40;;;;;;;;;;5003059;28;20046;-63
2022/10/07 00:02:43;;;;;;;12.73;2.53;;;;;;;;;;5020880;28;20042;-63
2022/10/07 00:05:09;;;;;;;10.65;2.85;;;;;;;;;;5014654;28;20132;-63
2022/10/07 00:07:35;;;;;;;15.45;3.22;;;;;;;;;;5017437;28;20038;-63
2022/10/07 00:10:01;;;;;;;10.90;3.30;;;;;;;;;;5017150;28;20037;-63
2022/10/07 00:12:27;;;;;;;11.63;3.63;;;;;;;;;;5021260;28;20505;-63
2022/10/07 00:14:54;;;;;;;13.27;2.55;;;;;;;;;;5012806;28;20062;-63
2022/10/07 00:17:19;;;;;;;9.50;3.03;;;;;;;;;;5013796;28;20038;-64
2022/10/07 00:19:45;;;;;;;13.23;3.60;;;;;;;;;;5014069;28;20103;-64
2022/10/07 00:22:11;;;;;;;13.52;2.65;;;;;;;;;;5016592;28;20525;-63
2022/10/07 00:24:37;;;;;;;17.52;4.10;;;;;;;;;;5011697;28;20053;-63
2022/10/07 00:27:04;;;;;;;10.30;2.83;;;;;;;;;;5020187;28;20064;-64
2022/10/07 00:29:30;;;;;;;11.75;2.83;;;;;;;;;;5018803;28;20045;-63
2022/10/07 00:31:56;;;;;;;12.88;2.83;;;;;;;;;;5013362;28;20058;-63
2022/10/07 00:34:22;;;;;;;9.60;2.40;;;;;;;;;;5016718;28;20040;-63
2022/10/07 00:36:49;;;;;;;10.90;2.60;;;;;;;;;;5015306;28;20143;-63
2022/10/07 00:39:16;;;;;;;11.02;2.97;;;;;;;;;;4999209;28;20057;-63
2022/10/07 00:41:42;;;;;;;11.23;2.60;;;;;;;;;;4991146;28;20042;-63
2022/10/07 00:44:27;;;;;;;14.73;3.13;;;;;;;;;;4991162;28;20392;-63
2022/10/07 00:46:54;;;;;;;12.30;2.40;;;;;;;;;;4993057;28;20049;-63
2022/10/07 00:49:20;;;;;;;12.50;2.75;;;;;;;;;;4996049;28;20132;-63
2022/10/07 00:51:50;;;;;;;15.48;2.85;;;;;;;;;;4994246;28;20414;-63
2022/10/07 00:54:17;;;;;;;14.15;2.90;;;;;;;;;;4992788;28;20046;-63
2022/10/07 00:56:44;;;;;;;10.95;3.20;;;;;;;;;;4992696;28;20153;-63
2022/10/07 00:59:11;;;;;;;18.10;3.45;;;;;;;;;;5005479;28;20121;-63
2022/10/07 01:01:40;;;;;;;10.10;2.70;;;;;;;;;;5013939;28;20426;-63
2022/10/07 01:06:38;;;;;;;14.60;3.35;;;;;;;;;;5052171;23;20058;-63
2022/10/07 01:09:05;;;;;;;12.38;4.50;;;;;;;;;;5031986;28;20136;-63
2022/10/07 01:11:37;;;;;;;19.38;3.05;;;;;;;;;;5033165;28;20046;-63
2022/10/07 01:14:15;;;;;;;15.95;3.20;;;;;;;;;;5032190;28;20104;-63
2022/10/07 01:17:00;;;;;;;11.48;3.40;;;;;;;;;;5018535;28;20095;-63
2022/10/07 01:25:35;;;;;;;10.57;3.25;;;;;;;;;;4955740;29;20455;-62
2022/10/07 01:28:07;;;;;;;12.82;2.97;;;;;;;;;;4955929;29;20780;-62
2022/10/07 01:30:35;;;;;;;15.68;3.55;;;;;;;;;;4956424;29;20103;-63
2022/10/07 01:33:04;;;;;;;17.00;3.97;;;;;;;;;;4939093;29;20043;-63
2022/10/07 01:35:34;;;;;;;15.98;3.40;;;;;;;;;;4956977;29;20090;-63
2022/10/07 01:38:03;;;;;;;20.88;4.20;;;;;;;;;;4955609;29;20047;-63
2022/10/07 01:40:39;;;;;;;12.15;3.47;;;;;;;;;;4934474;29;20047;-63
2022/10/07 01:43:05;;;;;;;14.98;3.97;;;;;;;;;;4956254;28;20094;-62
2022/10/07 01:45:32;;;;;;;11.48;3.85;;;;;;;;;;4952846;29;20047;-62
2022/10/07 01:47:58;;;;;;;20.48;4.05;;;;;;;;;;4948251;29;20477;-62
2022/10/07 01:50:26;;;;;;;10.57;4.20;;;;;;;;;;4956428;29;20133;-62
2022/10/07 01:52:56;;;;;;;15.52;4.15;;;;;;;;;;4957136;29;20511;-62
2022/10/07 01:55:22;;;;;;;15.18;3.40;;;;;;;;;;4956531;29;20058;-62
2022/10/07 01:58:00;;;;;;;12.13;3.90;;;;;;;;;;4955876;29;20050;-63
2022/10/07 02:00:26;;;;;;;13.70;3.53;;;;;;;;;;4954835;29;20047;-62
2022/10/07 02:03:31;;;;;;;12.30;3.60;;;9.00;99.90;;;;;;4953665;29;20130;-62
2022/10/07 02:06:03;;;;;;;10.93;3.70;;;;;;;;;;4955370;29;20043;-62
2022/10/07 02:08:30;;;;;;;12.82;3.83;;;;;;;;;;4938740;29;20526;-62
2022/10/07 02:11:13;;;;;;;17.17;4.07;;;;;;;;;;4956042;28;20459;-62
2022/10/07 02:13:42;;;;;;;15.70;3.97;;;;;;;;;;4953738;29;20044;-62
2022/10/07 02:16:08;;;;;;;10.43;3.55;;;;;;;;;;4952671;28;20055;-62
2022/10/07 02:18:35;;;;;;;20.75;3.97;;;;;;;;;;4954550;28;20058;-62
2022/10/07 02:21:04;;;;;;;14.57;3.83;;;;;;;;;;4956304;29;20098;-62
2022/10/07 02:23:33;;;;;;;16.60;4.13;;;;;;;;;;4958965;28;20046;-62
2022/10/07 02:25:59;;;;;;;16.75;4.50;;;;;;;;;;4973788;28;20051;-62
2022/10/07 02:28:26;;;;;;;18.70;3.97;;;;;;;;;;4965117;28;20043;-62
2022/10/07 02:30:55;;;;;;;24.08;4.05;;;;;;;;;;4964894;28;20503;-62
2022/10/07 02:33:23;;;;;;;13.70;4.18;;;;;;;;;;4963991;28;20039;-62
2022/10/07 02:35:52;;;;;;;14.43;3.30;;;;;;;;;;4927492;28;20062;-62
2022/10/07 02:38:18;;;;;;;15.50;4.22;;;;;;;;;;4971809;28;20047;-62
2022/10/07 02:40:57;;;;;;;14.15;3.45;;;;;;;;;;4964597;28;20047;-62
2022/10/07 02:43:27;;;;;;;16.42;4.50;;;;;;;;;;4972865;28;20046;-63
2022/10/07 02:46:02;;;;;;;;;;;9.00;99.90;;;;;;4959900;28;20134;-63
2022/10/07 02:48:31;;;;;;;18.23;3.92;;;;;;;;;;4974381;28;19926;-63
2022/10/07 02:50:59;;;;;;;19.37;3.70;;;;;;;;;;4974204;28;20054;-63
2022/10/07 02:53:27;;;;;;;13.77;3.58;;;;;;;;;;4968060;28;20046;-63
2022/10/07 02:55:54;;;;;;;16.25;3.85;;;;;;;;;;4974475;28;20050;-63
2022/10/07 02:58:20;;;;;;;16.30;3.80;;;;;;;;;;4968033;28;20039;-63
2022/10/07 03:00:49;;;;;;;26.13;4.30;;;;;;;;;;4953327;28;20047;-63
2022/10/07 03:03:16;;;;;;;22.67;3.70;;;;;;;;;;4966356;28;20057;-63
2022/10/07 03:05:42;;;;;;;27.65;6.15;;;;;;;;;;4967531;28;20047;-63
2022/10/07 03:08:08;;;;;;;14.02;4.78;;;;;;;;;;4966955;28;20057;-63
2022/10/07 03:10:35;;;;;;;14.15;3.50;;;;;;;;;;4974576;28;20050;-63
2022/10/07 03:13:03;;;;;;;17.58;4.43;;;;;;;;;;4968371;28;20046;-63
2022/10/07 03:15:30;;;;;;;18.30;3.92;;;;;;;;;;4974188;28;20050;-63
2022/10/07 03:17:56;;;;;;;10.40;3.60;;;;;;;;;;4970394;28;20039;-63
2022/10/07 03:20:22;;;;;;;25.35;5.50;;;;;;;;;;4973841;28;20051;-63
2022/10/07 03:22:48;;;;;;;16.50;4.50;;;;;;;;;;4975165;28;20049;-63
2022/10/07 03:25:14;;;;;;;14.02;4.07;;;;;;;;;;4956762;28;20091;-63
2022/10/07 03:27:44;;;;;;;14.05;4.07;;;;;;;;;;4967657;28;20821;-63
2022/10/07 03:30:11;;;;;;;17.13;3.38;;;;;;;;;;4969488;28;20122;-63
2022/10/07 03:32:40;;;;;;;14.05;4.75;;;;;;;;;;4964557;28;20496;-63
2022/10/07 03:35:06;;;;;;;17.17;4.20;;;;;;;;;;4971925;28;20069;-63
2022/10/07 03:37:32;;;;;;;19.70;5.65;;;;;;;;;;4970845;28;20059;-63
2022/10/07 03:39:58;;;;;;;14.93;3.90;;;;;;;;;;4938075;28;20167;-63
2022/10/07 03:42:24;;;;;;;27.20;6.22;;;;;;;;;;4964122;28;20151;-63
2022/10/07 03:44:50;;;;;;;21.08;4.15;;;;;;;;;;4958041;28;20051;-63
2022/10/07 03:47:17;;;;;;;23.00;4.57;;;;;;;;;;4959836;28;20451;-63
2022/10/07 03:49:43;;;;;;;12.77;3.63;;;;;;;;;;4961234;28;20047;-63
2022/10/07 03:52:09;;;;;;;19.92;4.25;;;;;;;;;;4965801;28;20047;-63
2022/10/07 03:54:35;;;;;;;15.68;4.53;;;;;;;;;;4961333;28;20051;-63
2022/10/07 03:57:01;;;;;;;18.33;4.50;;;;;;;;;;4951790;28;20399;-63
2022/10/07 03:59:27;;;;;;;17.05;3.85;;;;;;;;;;4952407;28;20086;-63
2022/10/07 04:01:53;;;;;;;19.60;4.30;;;;;;;;;;4968832;28;20046;-63
2022/10/07 04:04:19;;;;;;;15.50;4.32;;;;;;;;;;4966106;28;20046;-63
2022/10/07 04:06:45;;;;;;;19.67;5.10;;;;;;;;;;4964159;28;20051;-63
2022/10/07 04:09:12;;;;;;;19.20;4.30;;;;;;;;;;4962719;28;20054;-63
2022/10/07 04:11:40;;;;;;;14.60;4.30;;;;;;;;;;4960750;28;20050;-63
2022/10/07 04:14:06;;;;;;;22.20;4.10;;;;;;;;;;4959953;28;20075;-63
2022/10/07 04:16:33;;;;;;;24.30;4.80;;;;;;;;;;4971834;28;20046;-63
2022/10/07 04:18:59;;;;;;;18.05;4.57;;;;;;;;;;4972346;28;20492;-63
2022/10/07 04:21:25;;;;;;;19.60;4.95;;;;;;;;;;4968255;28;20109;-63
2022/10/07 04:23:51;;;;;;;13.73;4.63;;;;;;;;;;4960920;28;20051;-63
2022/10/07 04:26:17;;;;;;;24.70;5.07;;;;;;;;;;4967380;28;20050;-63
2022/10/07 04:28:43;;;;;;;20.23;5.43;;;;;;;;;;4962271;28;20059;-63
2022/10/07 04:31:10;;;;;;;18.48;4.57;;;;;;;;;;4964010;28;20102;-63
2022/10/07 04:33:40;;;;;;;18.80;4.15;;;;;;;;;;4947230;28;20039;-63
2022/10/07 04:36:08;;;;;;;18.80;4.97;;;;;;;;;;4965216;28;20105;-64
2022/10/07 04:38:34;;;;;;;18.83;4.70;;;;;;;;;;4965724;28;20059;-63
2022/10/07 04:41:03;;;;;;;23.60;4.78;;;;;;;;;;4964869;28;20042;-63
2022/10/07 04:43:32;;;;;;;26.65;4.88;;;;;;;;;;4965690;28;20053;-63
2022/10/07 04:46:06;;;;;;;18.17;4.63;;;;;;;;;;4949575;28;20055;-64
2022/10/07 04:48:32;;;;;;;19.13;4.82;;;;;;;;;;4965637;28;20055;-64
2022/10/07 04:51:02;;;;;;;17.20;5.43;;;;;;;;;;4964244;28;20126;-63
2022/10/07 04:53:28;;;;;;;23.80;5.50;;;;;;;;;;4964528;28;20047;-64
2022/10/07 04:55:55;;;;;;;30.73;6.90;;;;;;;;;;4965750;28;20073;-64
2022/10/07 04:58:21;;;;;;;19.60;4.30;;;;;;;;;;4964447;28;20526;-63
2022/10/07 05:00:50;;;;;;;26.60;5.85;;;;;;;;;;4968823;28;20161;-63
2022/10/07 05:03:17;;;;;;;19.08;5.40;;;;;;;;;;4934739;28;20046;-64
2022/10/07 05:05:44;;;;;;;16.55;4.97;;;;;;;;;;4965505;28;20043;-64
2022/10/07 05:08:11;;;;;;;20.08;5.60;;;;;;;;;;4970230;28;20129;-64
2022/10/07 05:10:40;;;;;;;22.00;6.20;;;;;;;;;;4969650;28;20146;-63
2022/10/07 05:13:08;;;;;;;23.35;5.85;;;;;;;;;;4971782;28;20073;-63
2022/10/07 05:15:34;;;;;;;17.08;5.53;;;;;;;;;;4971463;28;20046;-63
2022/10/07 05:18:00;;;;;;;18.30;5.38;;;;;;;;;;4971323;28;20051;-63
2022/10/07 05:20:26;;;;;;;24.80;6.00;;;;;;;;;;4971360;28;20098;-63
2022/10/07 05:22:52;;;;;;;14.52;5.15;;;;;;;;;;4968268;28;20039;-63
2022/10/07 05:25:18;;;;;;;24.77;5.13;;;;;;;;;;4962439;28;20086;-62
2022/10/07 05:27:45;;;;;;;21.92;6.18;;;;;;;;;;4965252;28;20047;-63
2022/10/07 05:30:11;;;;;;;24.60;5.82;;;;;;;;;;4934811;28;20612;-63
2022/10/07 05:32:37;;;;;;;18.10;4.78;;;;;;;;;;4950327;28;20047;-64
2022/10/07 05:35:03;;;;;;;18.17;5.47;;;;;;;;;;4971945;28;20049;-63
2022/10/07 05:37:29;;;;;;;21.88;5.53;;;;;;;;;;4972652;28;20051;-63
2022/10/07 05:39:55;;;;;;;23.63;5.20;;;;;;;;;;4972400;28;20046;-62
2022/10/07 05:42:21;;;;;;;18.05;5.40;;;;;;;;;;4971171;28;20042;-62
2022/10/07 05:44:47;;;;;;;18.52;5.97;;;;;;;;;;4969155;28;20089;-63
2022/10/07 05:47:14;;;;;;;21.13;5.43;;;;;;;;;;4958937;28;20455;-62
2022/10/07 05:49:40;;;;;;;26.40;6.25;;;;;;;;;;4977195;28;20093;-62
2022/10/07 05:52:06;;;;;;;19.63;6.38;;;;;;;;;;4966692;28;20050;-62
2022/10/07 05:54:32;;;;;;;18.77;5.82;;;;;;;;;;4975058;28;20042;-62
2022/10/07 05:56:59;;;;;;;22.13;5.70;;;;;;;;;;4954876;28;20086;-63
2022/10/07 05:59:25;;;;;;;18.63;5.97;;;;;;;;;;4976254;28;20400;-63
2022/10/07 06:01:58;;;;;;;17.27;6.00;;;;;;;;;;4976049;28;20156;-63
2022/10/07 06:04:25;;;;;;;28.15;6.50;;;;;;;;;;4976801;28;20051;-64
2022/10/07 06:06:51;;;;;;;19.05;5.82;;;;;;;;;;4972490;28;20051;-63
2022/10/07 06:14:46;;;;;;;16.98;6.30;;;;;;;;;;4958601;28;20076;-64
2022/10/07 06:17:12;;;;;;;21.27;5.50;;;;;;;;;;4958898;28;20389;-63
2022/10/07 06:19:38;;;;;;;24.02;5.78;;;;;;;;;;4957588;28;20054;-63
2022/10/07 06:22:05;;;;;;;17.83;6.25;;;;;;;;;;4972628;28;20065;-63
2022/10/07 06:24:32;;;;;;;22.52;6.20;;;;;;;;;;4975343;28;20058;-63
2022/10/07 06:26:58;;;;;;;18.45;6.78;;;;;;;;;;4975100;28;20109;-64
2022/10/07 06:29:25;;;;;;;18.08;5.47;;;;;;;;;;4975487;28;20444;-63
2022/10/07 06:31:51;;;;;;;22.17;6.00;;;;;;;;;;4974347;28;20492;-63
2022/10/07 06:34:18;;;;;;;18.33;6.82;;;;;;;;;;4975706;28;20050;-63
2022/10/07 06:36:44;;;;;;;18.60;5.38;;;;;;;;;;4974357;28;20487;-63
2022/10/07 06:39:10;;;;;;;18.67;6.32;;;;;;;;;;4956230;28;20133;-63
2022/10/07 06:41:36;;;;;;;13.15;4.50;;;;;;;;;;4956568;28;20511;-62
2022/10/07 06:44:02;;;;;;;22.17;6.28;;;;;;;;;;4958207;28;20066;-62
2022/10/07 06:46:28;;;;;;;24.63;5.68;;;;;;;;;;4973699;28;20061;-62
2022/10/07 06:48:54;;;;;;;21.10;5.20;;;;;;;;;;4975600;28;20496;-62
2022/10/07 06:51:21;;;;;;;24.70;5.57;;;;;;;;;;4957949;28;20047;-62
2022/10/07 06:53:50;;;;;;;13.98;4.63;;;;;;;;;;4974474;28;20058;-62
2022/10/07 06:56:16;;;;;;;18.63;4.50;;;;;;;;;;4967501;28;20130;-62
2022/10/07 06:58:42;;;;;;;14.88;5.55;;;;;;;;;;4954958;28;20496;-62
2022/10/07 07:01:09;;;;;;;18.67;5.55;;;;;;;;;;4956388;28;20055;-62
2022/10/07 07:03:35;;;;;;;23.30;4.85;;;;;;;;;;4955973;29;20130;-62
2022/10/07 07:06:01;;;;;;;13.98;4.25;;;;;;;;;;4957140;28;20039;-62
2022/10/07 07:08:28;;;;;;;20.25;5.80;;;;;;;;;;4957140;28;20051;-62
2022/10/07 07:10:54;;;;;;;19.35;4.40;;;;;;;;;;4975534;28;20063;-62
2022/10/07 07:13:21;;;;;;;16.13;4.88;;;;;;;;;;4957349;28;20043;-62
2022/10/07 07:15:57;;;;;;;17.92;4.57;;;;;;;;;;4956370;28;20055;-62
2022/10/07 07:18:23;;;;;;;24.65;4.75;;;;;;;;;;4955818;29;20555;-62
2022/10/07 07:20:49;;;;;;;17.55;4.40;;;;;;;;;;4973257;28;20104;-62
2022/10/07 07:23:15;;;;;;;14.68;4.13;;;;;;;;;;4973639;28;20074;-62
2022/10/07 07:25:44;;;;;;;15.32;4.95;;;;;;;;;;4973277;28;20122;-62
2022/10/07 07:28:11;;;;;;;13.82;3.92;;;;;;;;;;4975162;28;20176;-62
2022/10/07 07:30:38;;;;;;;9.85;3.13;;;;;;;;;;4974332;28;20051;-62
2022/10/07 07:33:04;;;;;;;23.15;4.63;;;;;;;;;;4960667;28;20043;-62
2022/10/07 07:35:31;;;;;;;20.70;4.60;;;;;;;;;;4960325;28;20043;-62
2022/10/07 07:37:58;;;;;;;13.00;3.55;;;;;;;;;;4949839;28;20133;-63
2022/10/07 07:40:25;;;;;;;17.75;3.50;;;;;;;;;;4948558;28;20113;-63
2022/10/07 07:42:54;;;;;;;22.20;4.82;;;;;;;;;;4960498;28;20126;-62
2022/10/07 07:45:21;;;;;;;19.23;4.15;;;;;;;;;;4952409;28;20089;-62
2022/10/07 07:47:48;;;;;;;11.13;3.58;;;;;;;;;;4973592;28;20051;-62
2022/10/07 07:50:15;;;;;;;16.73;4.35;;;;;;;;;;4974411;28;20074;-62
2022/10/07 07:52:41;;;;;;;17.15;3.80;;;;;;;;;;4973497;28;20054;-62
2022/10/07 07:55:07;;;;;;;17.48;4.03;;;;;;;;;;4972760;28;20051;-62
2022/10/07 07:57:33;;;;;;;17.75;3.30;;;;;;;;;;4972161;28;20043;-62
2022/10/07 07:59:59;;;;;;;14.25;2.60;;;;;;;;;;4970337;28;20102;-62
2022/10/07 08:02:26;;;;;;;15.65;4.72;;;;;;;;;;4965918;28;20047;-63
2022/10/07 08:04:52;;;;;;;19.50;4.78;;;;;;;;;;4972723;28;20057;-63
2022/10/07 08:07:18;;;;;;;17.75;3.28;;;;;;;;;;4955959;28;20055;-63
2022/10/07 08:09:44;;;;;;;17.05;3.72;;;;;;;;;;4968369;28;20058;-62
2022/10/07 08:12:11;;;;;;;22.83;4.97;;;;;;;;;;4972010;28;20089;-62
2022/10/07 08:14:37;;;;;;;15.55;3.17;;;;;;;;;;4944463;28;20053;-63
2022/10/07 08:17:03;;;;;;;14.07;2.83;;;;;;;;;;4953928;28;20043;-62
2022/10/07 08:19:29;;;;;;;20.35;3.75;;;;;;;;;;4970273;28;20047;-62
2022/10/07 08:21:57;;;;;;;14.07;3.28;;;;;;;;;;4968280;28;20596;-62
2022/10/07 08:24:24;;;;;;;18.45;2.95;;;;;;;;;;4954253;28;20113;-62
2022/10/07 08:26:52;;;;;;;13.60;3.28;;;;;;;;;;4936392;29;20062;-62
2022/10/07 08:29:19;;;;;;;16.88;3.80;;;;;;;;;;4961595;28;20089;-62
2022/10/07 08:31:45;;;;;;;17.48;3.25;;;;;;;;;;4966142;28;20108;-62
2022/10/07 08:34:11;;;;;;;19.40;3.78;;;;;;;;;;4972959;28;20083;-62
2022/10/07 08:36:38;;;;;;;24.17;4.32;;;;;;;;;;4953816;29;20138;-62
2022/10/07 08:39:04;;;;;;;18.75;2.80;;;;;;;;;;4972765;28;20050;-65
2022/10/07 08:41:31;;;;;;;13.45;3.20;;;;;;;;;;4970206;28;20049;-62
2022/10/07 08:43:59;;;;;;;19.00;5.40;;;;;;;;;;4973215;28;20057;-62
2022/10/07 08:46:27;;;;;;;16.50;3.08;;;;;;;;;;4961901;28;20174;-62
2022/10/07 08:49:00;;;;;;;14.02;3.40;;;;;;;;;;4972432;28;20058;-62
2022/10/07 08:51:29;;;;;;;14.18;3.03;;;;;;;;;;4953676;28;20129;-63
2022/10/07 08:54:00;;;;;;;11.70;2.50;;;;;;;;;;4972654;28;20055;-63
2022/10/07 08:56:29;;;;;;;16.73;3.88;;;14.80;99.90;;;;;;4953436;29;20134;-63
2022/10/07 08:59:11;;;;;;;16.73;3.60;;;;;;;;;;4954580;28;20043;-63
2022/10/07 09:01:46;;;;;;;20.30;3.88;;;;;;;;;;4961374;28;20246;-62
2022/10/07 09:04:26;;;;;;;13.57;3.72;;;;;;;;;;4963772;28;20410;-62
2022/10/07 09:06:57;;;;;;;18.27;3.35;;;;;;;;;;4958420;28;20443;-63
2022/10/07 09:09:29;;;;;;;11.38;3.85;;;;;;;;;;4955445;28;20071;-62
2022/10/07 09:11:57;;;;;;;13.88;3.10;;;;;;;;;;4953520;28;20078;-61
2022/10/07 09:14:37;;;;;;;18.13;3.63;;;;;;;;;;4970721;28;20092;-63
2022/10/07 09:17:07;;;;;;;16.42;3.08;;;;;;;;;;4953062;29;20079;-63
2022/10/07 09:19:35;;;;;;;12.38;3.15;;;;;;;;;;4971850;28;20466;-63
2022/10/07 09:22:30;;;;;;;17.30;3.65;;;;;;;;;;4972909;28;20085;-63
2022/10/07 09:25:12;;;;;;;24.02;3.90;;;;;;;;;;4950694;28;20076;-63
2022/10/07 09:27:38;;;;;;;22.45;3.28;;;;;;;;;;4939586;29;20126;-63
2022/10/07 09:30:05;;;;;;;18.45;3.15;;;;;;;;;;4963850;28;20121;-63
2022/10/07 09:32:33;;;;;;;17.88;3.03;;;;;;;;;;4958972;28;20530;-63
2022/10/07 09:35:02;;;;;;;16.55;3.17;;;;;;;;;;4976763;28;20082;-63
2022/10/07 09:37:28;;;;;;;12.43;3.00;;;;;;;;;;4956828;28;20157;-63
2022/10/07 09:39:58;;;;;;;16.73;3.17;;;;;;;;;;4956450;29;20043;-63
2022/10/07 09:42:28;;;;;;;15.13;2.88;;;;;;;;;;4976190;28;20078;-63
2022/10/07 09:44:55;;;;;;;22.10;3.63;;;;;;;;;;4975987;28;20078;-63
2022/10/07 09:47:25;;;;;;;11.63;2.50;;;;;;;;;;4958054;28;20407;-63
2022/10/07 09:49:56;;;;;;;15.38;3.08;;;;;;;;;;4956930;28;20047;-63
2022/10/07 09:52:26;;;;;;;18.27;2.58;;;;;;;;;;4957049;29;20051;-63
2022/10/07 09:54:53;;;;;;;14.32;3.30;;;;;;;;;;4939087;29;20051;-63
2022/10/07 09:57:22;;;;;;;20.33;3.50;;;;;;;;;;4957780;28;20043;-63
2022/10/07 09:59:48;;;;;;;16.45;3.25;;;;;;;;;;4957067;28;20071;-63
2022/10/07 10:02:14;;;;;;;15.25;2.53;;;;;;;;;;4953128;28;20534;-63
2022/10/07 10:04:47;;;;;;;11.60;2.88;;;;;;;;;;4951448;28;20047;-62
2022/10/07 10:07:18;;;;;;;15.02;2.75;;;;;;;;;;4972632;28;20444;-63
2022/10/07 10:09:55;;;;;;;12.93;2.80;;;;;;;;;;4969685;28;20047;-62
2022/10/07 10:12:22;;;;;;;16.92;2.92;;;;;;;;;;4969765;28;20058;-63
2022/10/07 10:14:52;;;;;;;20.20;4.35;;;;;;;;;;4972894;28;20105;-62
2022/10/07 10:17:21;;;;;;;20.25;4.03;;;;;;;;;;4971743;28;20110;-63
2022/10/07 10:19:47;;;;;;;16.88;3.28;;;;;;;;;;4972962;28;20057;-63
2022/10/07 10:22:27;;;;;;;14.15;3.13;;;;;;;;;;4950973;28;20039;-63
2022/10/07 10:27:41;;;;;;;15.05;2.50;;;;;;;;;;4974573;28;20051;-63
2022/10/07 10:30:09;;;;;;;10.98;2.13;;;;;;;;;;4975213;28;20050;-63
2022/10/07 10:32:46;;;;;;;11.30;2.65;;;;;;;;;;4945798;28;20078;-63
2022/10/07 10:35:18;;;;;;;17.45;2.78;;;;;;;;;;4972722;28;20042;-63
2022/10/07 10:38:22;;;;;;;16.38;2.50;;;15.40;99.90;;;;;;4953552;28;20499;-63
2022/10/07 10:40:55;;;;;;;12.40;2.92;;;;;;;;;;4946644;28;20055;-63
2022/10/07 10:43:24;;;;;;;13.95;2.30;;;;;;;;;;4975864;28;20051;-63
2022/10/07 10:46:29;;;;;;;18.13;2.88;;;15.70;99.90;;;;;;4973355;28;20043;-63
2022/10/07 10:48:58;;;;;;;13.13;3.28;;;;;;;;;;4939746;28;20110;-63
2022/10/07 10:51:43;;;;;;;13.95;2.58;;;;;;;;;;4971788;28;20051;-63
2022/10/07 10:54:21;;;;;;;7.00;2.22;;;;;;;;;;4974671;28;20050;-63
2022/10/07 10:56:57;;;;;;;13.57;3.20;;;;;;;;;;4967423;28;20117;-60
2022/10/07 10:59:26;;;;;;;10.98;2.40;;;;;;;;;;4953171;28;20073;-58
2022/10/07 11:02:01;;;;;;;14.73;2.80;;;;;;;;;;4974779;28;20046;-58
2022/10/07 11:04:56;;;;;;;13.90;3.08;;;;;;;;;;4965999;28;20062;-59
2022/10/07 11:07:43;;;;;;;17.52;3.03;;;;;;;;;;4962101;28;20058;-59
2022/10/07 11:10:27;;;;;;;13.38;3.85;;;;;;;;;;4973842;28;20038;-58
2022/10/07 11:12:56;;;;;;;11.88;2.50;;;;;;;;;;4957878;28;20157;-60
2022/10/07 11:15:25;;;;;;;10.52;2.30;;;;;;;;;;4941460;28;20054;-58
2022/10/07 11:17:52;;;;;;;13.18;2.33;;;;;;;;;;4974321;28;20051;-58
2022/10/07 11:20:24;;;;;;;17.83;3.15;;;;;;;;;;4974350;28;20054;-59
2022/10/07 11:23:02;;;;;;;14.85;2.63;;;;;;;;;;4965889;28;20094;-58
2022/10/07 11:25:31;;;;;;;13.73;2.92;;;;;;;;;;4949892;28;20051;-57
2022/10/07 11:28:01;;;;;;;15.75;2.40;;;;;;;;;;4968092;28;20051;-63
2022/10/07 11:30:30;;;;;;;14.23;2.47;;;;;;;;;;4953988;28;20051;-63
2022/10/07 11:33:03;;;;;;;12.93;2.45;;;;;;;;;;4952378;28;20047;-64
2022/10/07 11:35:38;;;;;;;13.52;2.63;;;;;;;;;;4937723;29;20051;-64
2022/10/07 11:38:13;;;;;;;10.38;2.35;;;;;;;;;;4922600;29;20051;-63
2022/10/07 11:41:01;;;;;;;10.27;2.53;;;;;;;;;;4955047;28;20058;-64
2022/10/07 11:43:27;;;;;;;11.50;2.22;;;;;;;;;;4955332;28;20516;-63
2022/10/07 11:46:02;;;;;;;12.57;2.40;;;;;;;;;;4939113;28;20556;-63
2022/10/07 11:48:33;;;;;;;12.00;2.20;;;;;;;;;;4955392;28;20060;-64
2022/10/07 11:51:03;;;;;;;12.48;2.28;;;;;;;;;;4941049;29;20042;-63
2022/10/07 11:53:32;;;;;;;15.90;2.53;;;;;;;;;;4921607;29;20043;-65
2022/10/07 11:56:31;;;;;;;16.13;2.22;;;;;;;;;;4953704;28;20039;-66
2022/10/07 11:59:04;;;;;;;14.38;3.33;;;;;;;;;;4920672;28;20102;-67
2022/10/07 12:01:44;;;;;;;14.82;3.25;;;16.80;99.90;;;;;;4951345;28;20110;-65
2022/10/07 12:04:26;;;;;;;14.02;2.70;;;;;;;;;;4947799;28;20059;-67
2022/10/07 12:07:29;;;;;;;11.05;1.70;;;17.00;99.90;;;;;;4940581;29;20055;-65
2022/10/07 12:10:02;;;;;;;12.32;1.85;;;;;;;;;;4947367;29;20051;-65
2022/10/07 12:12:43;;;;;;;10.18;1.77;;;;;;;;;;4954967;28;20054;-65
2022/10/07 12:15:28;;;;;;;21.50;2.47;;;;;;;;;;4953163;28;20051;-65
2022/10/07 12:18:05;;;;;;;12.95;2.03;;;;;;;;;;4953378;28;20051;-65
2022/10/07 12:20:41;;;;;;;9.13;2.10;;;;;;;;;;4965665;28;20054;-65
2022/10/07 12:23:20;;;;;;;15.70;3.67;;;;;;;;;;4950127;28;20051;-64
2022/10/07 12:25:54;;;;;;;21.52;5.00;;;;;;;;;;4961198;28;20058;-64
2022/10/07 12:28:29;;;;;;;28.90;6.22;;;;;;;;;;4949828;28;20105;-64
2022/10/07 12:30:56;;;;;;;22.70;7.85;;;;;;;;;;4972369;28;20066;-64
2022/10/07 12:33:29;;;;;;;22.67;9.32;;;;;;;;;;4955328;28;20108;-63
2022/10/07 12:35:55;;;;;;;26.10;7.68;;;;;;;;;;4938499;28;20047;-63
2022/10/07 12:38:22;;;;;;;21.27;5.60;;;;;;;;;;4947451;29;20129;-63
2022/10/07 12:41:08;;;;;;;19.77;5.63;;;;;;;;;;4967302;28;20073;-66
2022/10/07 12:43:38;;;;;;;23.90;6.18;;;;;;;;;;4932836;28;20069;-63
2022/10/07 12:46:10;;;;;;;19.50;5.55;;;;;;;;;;4955437;28;20055;-64
2022/10/07 12:48:40;;;;;;;20.48;7.38;;;;;;;;;;4958969;28;20047;-64
2022/10/07 12:51:11;;;;;;;17.77;5.30;;;;;;;;;;4937150;29;20051;-64
2022/10/07 12:53:42;;;;;;;25.88;8.20;;;;;;;;;;4970532;28;20051;-64
2022/10/07 12:56:09;;;;;;;45.00;15.88;;;;;;;;;;4971814;28;20061;-64
2022/10/07 13:01:37;;;;;;;48.50;16.52;;;;;;;;;;4975994;28;20141;-65
2022/10/07 13:04:19;;;;;;;44.30;14.55;;;;;;;;;;4975554;28;20133;-64
2022/10/07 13:07:19;;;;;;;58.03;20.30;;;17.70;99.90;;;;;;4975931;28;20046;-64
2022/10/07 13:09:45;;;;;;;44.08;17.13;;;;;;;;;;4958406;28;20444;-65
2022/10/07 13:12:45;;;;;;;57.13;21.55;;;18.00;99.90;;;;;;4947313;28;20123;-64
2022/10/07 13:15:14;;;;;;;56.03;25.30;;;;;;;;;;4960573;28;20074;-65
2022/10/07 13:17:53;;;;;;;67.60;25.40;;;;;;;;;;4951557;28;20050;-64
2022/10/07 13:20:34;;;;;;;54.67;21.77;;;;;;;;;;4959754;28;20047;-64
2022/10/07 13:23:20;;;;;;;38.47;14.63;;;;;;;;;;4957990;28;20408;-65
2022/10/07 13:25:54;;;;;;;22.77;7.18;;;;;;;;;;4947105;28;20059;-63
2022/10/07 13:28:24;;;;;;;13.80;3.40;;;;;;;;;;4941022;28;20051;-64
2022/10/07 13:30:51;;;;;;;13.15;2.95;;;17.80;99.90;;;;;;4958782;28;20062;-64
2022/10/07 13:33:26;;;;;;;12.60;2.70;;;;;;;;;;4976073;28;20133;-64
2022/10/07 13:36:05;;;;;;;17.40;4.55;;;;;;;;;;4975560;28;20046;-61
2022/10/07 13:38:31;;;;;;;40.10;13.85;;;;;;;;;;4941333;28;20691;-65
2022/10/07 13:41:27;;;;;;;31.77;11.98;;;;;;;;;;4959113;28;20435;-64
2022/10/07 13:43:56;;;;;;;26.60;8.82;;;;;;;;;;4966847;28;20138;-64
2022/10/07 13:46:24;;;;;;;22.90;6.53;;;17.60;99.90;;;;;;4958383;28;20054;-64
2022/10/07 13:48:50;;;;;;;20.30;5.75;;;;;;;;;;4973272;28;20050;-64
2022/10/07 13:51:36;;;;;;;17.60;4.70;;;;;;;;;;4958168;28;20043;-64
2022/10/07 13:54:03;;;;;;;11.15;3.47;;;;;;;;;;4955941;28;20047;-65
2022/10/07 13:56:30;;;;;;;15.65;2.70;;;;;;;;;;4956957;28;20500;-65
2022/10/07 13:58:57;;;;;;;10.52;2.70;;;;;;;;;;4930524;28;20067;-66
2022/10/07 14:01:27;;;;;;;13.23;2.40;;;17.50;99.90;;;;;;4977979;28;20070;-65
2022/10/07 14:04:18;;;;;;;8.65;1.98;;;17.80;99.90;;;;;;4957130;28;20082;-65
2022/10/07 14:06:44;;;;;;;9.85;1.85;;;;;;;;;;4956840;28;20528;-66
2022/10/07 14:09:42;;;;;;;13.20;2.92;;;17.80;99.90;;;;;;4971996;28;20403;-64
2022/10/07 14:12:11;;;;;;;10.93;2.35;;;;;;;;;;4973915;28;20527;-65
2022/10/07 14:14:40;;;;;;;10.02;2.17;;;;;;;;;;4975047;28;20054;-65
2022/10/07 14:17:17;;;;;;;10.55;2.05;;;;;;;;;;4956261;28;20053;-65
2022/10/07 14:19:43;;;;;;;12.15;1.67;;;;;;;;;;4936800;28;20463;-65
2022/10/07 14:22:18;;;;;;;17.85;2.38;;;;;;;;;;4973997;28;20561;-64
2022/10/07 14:24:52;;;;;;;14.13;1.88;;;;;;;;;;4940187;28;20062;-64
2022/10/07 14:27:36;;;;;;;9.15;2.47;;;17.10;99.90;;;;;;4944798;28;20141;-65
2022/10/07 14:30:03;;;;;;;15.65;2.75;;;;;;;;;;4973903;28;20042;-64
2022/10/07 14:35:18;;;;;;;9.13;1.73;;;;;;;;;;4956919;28;20105;-65
2022/10/07 14:37:45;;;;;;;15.90;1.98;;;;;;;;;;4937445;28;20054;-64
2022/10/07 14:40:22;;;;;;;14.85;1.52;;;;;;;;;;4958201;28;20053;-64
2022/10/07 14:42:54;;;;;;;14.25;2.15;;;;;;;;;;4957993;28;20113;-65
2022/10/07 14:45:21;;;;;;;12.10;1.75;;;;;;;;;;4972775;28;20042;-65
2022/10/07 14:47:48;;;;;;;15.43;2.38;;;;;;;;;;4956895;28;20047;-65
2022/10/07 14:50:18;;;;;;;13.07;1.67;;;;;;;;;;4957295;28;20047;-65
2022/10/07 14:52:45;;;;;;;9.77;1.67;;;;;;;;;;4973487;28;20050;-65
2022/10/07 14:55:31;;;;;;;10.93;2.00;;;;;;;;;;4943101;28;20055;-65
2022/10/07 14:57:57;;;;;;;11.88;2.30;;;;;;;;;;4956663;28;20492;-64
2022/10/07 15:00:24;;;;;;;13.32;2.42;;;;;;;;;;4973121;28;20058;-64
2022/10/07 15:02:52;;;;;;;14.68;3.55;;;;;;;;;;4972937;28;20119;-64